Accueil
METAR-TAF:

METAR-TAF

Aéroports :

Aéroport international Lynden Pindling

Nassau, Bahamas

latitude: 25-03N, longitude: 077-28W, altitude: 3 m

Observation

Le bulletin a été fait il y a 51 minutes, à 22:00 UTC
Vent 10 kt de ouest/nord-ouest
Température 19°C
Humidité 60%
Pression 1021 hPa
Visibilité 10 km ou plus
Quelques nuages à une hauteur de 2500 ft
Nuages épars à une hauteur de 4000 ft

METAR: MYNN 282200Z 29010KT 9999 FEW025 SCT040 19/11 A3016

Heure: 17:51 (22:51 UTC)

Prévision

Le bulletin a été fait il y a 6 heures et 21 minutes, à 16:30 UTC
Prévision valable du 28 à 18 UTC au 29 à 18 UTC
Vent 10 kt de nord/nord-ouest
Visibilité 10 km ou plus
Quelques nuages à une hauteur de 2200 ft
Nuages fragmentés à une hauteur de 4000 ft

TAF: MYNN 281630Z 2818/2918 34010KT 9999 FEW022 BKN040

Observations et prévisions météorologiques de plus de 4000 aéroports (messages METAR et TAF).

Les stations disponibles sont représentées par des disques jaunes et rouges sur la carte.

Passer la souris dessus pour voir le nom de la station.

Cliquer dessus pour voir les observations et prévisions météorologiques.

Pour changer de carte: cliquez sur les boutons verts avec une croix noire pour zoomer, sur le bouton vert avec un tiret pour effectuer un zoom arrière, ou sur les flèches vertes pour les cartes adjacentes.


METAR-TAF: